createdAt,value
2022-12-24T08:20:17.372Z,98.99
2022-12-24T08:25:20.518Z,99.59
2022-12-24T08:30:22.812Z,99.46
2022-12-24T08:35:25.034Z,99.27
2022-12-24T08:40:27.403Z,98.96
2022-12-24T08:45:33.173Z,99.47
2022-12-24T08:50:39.880Z,98.96
2022-12-24T08:55:42.432Z,98.25
2022-12-24T09:00:45.280Z,98.34
2022-12-24T09:05:47.879Z,97.88
2022-12-24T09:10:50.082Z,98.41
2022-12-24T09:15:55.728Z,98.10
2022-12-24T09:21:06.603Z,97.77
2022-12-24T09:26:12.339Z,97.60
2022-12-24T09:31:15.182Z,97.54
2022-12-24T09:36:18.558Z,97.40
2022-12-24T09:41:55.330Z,97.58
2022-12-24T09:47:05.387Z,97.95
2022-12-24T09:52:20.658Z,97.49
2022-12-24T09:57:35.877Z,97.56
2022-12-24T10:02:38.240Z,97.78
2022-12-24T10:07:50.136Z,97.02
2022-12-24T10:13:32.690Z,96.89
2022-12-24T10:18:58.985Z,96.49
2022-12-24T10:24:22.466Z,97.28
2022-12-24T10:29:28.935Z,97.48
2022-12-24T10:34:36.284Z,96.62
2022-12-24T10:39:38.553Z,96.72
2022-12-24T10:44:40.953Z,96.63
2022-12-24T10:49:50.347Z,96.97
2022-12-24T10:55:08.083Z,96.86
2022-12-24T11:00:28.579Z,96.33
2022-12-24T11:05:37.440Z,96.08
2022-12-24T11:10:56.169Z,96.47
2022-12-24T11:16:06.464Z,95.99
2022-12-24T11:21:08.853Z,96.16
2022-12-24T11:26:11.132Z,95.55
2022-12-24T11:31:21.099Z,95.24
2022-12-24T11:36:26.529Z,94.96
2022-12-24T11:41:37.295Z,95.92
2022-12-24T11:46:43.386Z,95.10
2022-12-24T11:52:12.107Z,95.89
2022-12-24T11:57:18.766Z,95.82
2022-12-24T12:02:38.159Z,96.18
2022-12-24T12:07:42.707Z,95.92
2022-12-24T12:12:50.156Z,95.70
2022-12-24T12:17:55.320Z,95.93
2022-12-24T12:23:02.648Z,96.23
2022-12-24T12:28:14.353Z,96.29
2022-12-24T12:33:26.756Z,95.90
2022-12-24T12:38:29.343Z,96.45
2022-12-24T12:43:34.483Z,96.37
2022-12-24T12:49:05.959Z,95.96
2022-12-24T12:54:21.175Z,96.01
2022-12-24T12:59:32.349Z,95.89
2022-12-24T13:04:34.495Z,96.25
2022-12-24T13:10:02.474Z,96.22
2022-12-24T13:15:24.910Z,96.21
2022-12-24T13:20:31.440Z,96.36
2022-12-24T13:25:40.095Z,96.10
2022-12-24T13:30:42.660Z,96.40
2022-12-24T13:35:59.788Z,96.27
2022-12-24T13:41:41.464Z,96.26
2022-12-24T13:47:25.364Z,96.26
2022-12-24T13:52:35.401Z,95.99
2022-12-24T13:57:58.040Z,96.51
2022-12-24T14:03:15.447Z,96.62
2022-12-24T14:08:40.376Z,96.43
2022-12-24T14:13:42.535Z,96.96
2022-12-24T14:18:58.087Z,97.25
2022-12-24T14:24:07.760Z,97.32
2022-12-24T14:29:31.195Z,96.66
2022-12-24T14:34:33.512Z,97.02
2022-12-24T14:39:39.033Z,97.05
2022-12-24T14:44:59.696Z,96.93
2022-12-24T14:50:21.758Z,97.59
2022-12-24T14:55:50.885Z,97.19
2022-12-24T15:00:59.888Z,97.77
2022-12-24T15:06:05.366Z,97.81
2022-12-24T15:11:10.233Z,97.15
2022-12-24T15:16:22.260Z,97.71
2022-12-24T15:21:33.239Z,97.30
2022-12-24T15:26:36.628Z,97.81
2022-12-24T15:31:39.035Z,97.86
2022-12-24T15:36:41.251Z,97.96
2022-12-24T15:42:03.967Z,97.25
2022-12-24T15:47:18.691Z,97.86
2022-12-24T15:52:24.657Z,97.35
2022-12-24T15:57:31.940Z,97.67
2022-12-24T16:02:42.262Z,98.07
2022-12-24T16:08:08.599Z,98.06
2022-12-24T16:13:31.327Z,97.64
2022-12-24T16:18:49.027Z,97.52
2022-12-24T16:23:54.629Z,97.85
2022-12-24T16:28:56.874Z,97.92
2022-12-24T16:34:01.067Z,97.66
2022-12-24T16:39:21.563Z,97.87
2022-12-24T16:44:23.760Z,98.32
2022-12-24T16:49:26.971Z,98.54
2022-12-24T16:54:30.117Z,98.88
2022-12-24T16:59:32.715Z,97.98
2022-12-24T17:04:35.142Z,98.13
2022-12-24T17:09:37.404Z,98.37
2022-12-24T17:14:40.745Z,98.00
2022-12-24T17:19:43.109Z,97.91
2022-12-24T17:24:45.691Z,98.73
2022-12-24T17:29:47.984Z,98.04
2022-12-24T17:34:50.242Z,98.60
2022-12-24T17:39:52.472Z,97.65
2022-12-24T17:44:54.731Z,97.96
2022-12-24T17:49:56.993Z,98.61
2022-12-24T17:54:59.358Z,98.85
2022-12-24T18:00:01.760Z,97.93
2022-12-24T18:05:23.903Z,97.94
2022-12-24T18:10:26.173Z,98.76
2022-12-24T18:15:28.435Z,98.59
2022-12-24T18:20:33.778Z,98.98
2022-12-24T18:25:36.023Z,98.21
2022-12-24T18:30:38.253Z,98.49
2022-12-24T18:35:40.523Z,98.41
2022-12-24T18:40:42.772Z,98.85
2022-12-24T18:45:45.854Z,98.28
2022-12-24T18:50:56.187Z,98.97
2022-12-24T18:56:17.816Z,98.63
2022-12-24T19:01:25.378Z,98.77
2022-12-24T19:06:28.107Z,98.34
2022-12-24T19:11:32.587Z,98.55
2022-12-24T19:16:36.930Z,98.50
2022-12-24T19:21:39.298Z,98.32
2022-12-24T19:26:41.595Z,98.39
2022-12-24T19:31:47.194Z,98.41
2022-12-24T19:36:49.653Z,98.43
2022-12-24T19:41:52.500Z,98.33
2022-12-24T19:46:54.801Z,98.43
2022-12-24T19:51:57.280Z,97.88
2022-12-24T19:56:59.518Z,98.41
2022-12-24T20:02:02.341Z,98.39
2022-12-24T20:07:04.669Z,98.35
2022-12-24T20:12:07.325Z,98.83
2022-12-24T20:17:10.018Z,98.62
2022-12-24T20:22:12.753Z,98.86
2022-12-24T20:27:15.058Z,99.13
2022-12-24T20:32:17.426Z,98.67
2022-12-24T20:37:19.748Z,98.74
2022-12-24T20:42:22.029Z,98.91
2022-12-24T20:47:24.290Z,98.63
2022-12-24T20:52:26.620Z,98.79
2022-12-24T20:57:34.398Z,98.97
2022-12-24T21:02:38.730Z,98.81
2022-12-24T21:07:42.991Z,98.30
2022-12-24T21:12:56.762Z,98.74
2022-12-24T21:17:59.802Z,98.49
2022-12-24T21:23:02.318Z,99.69
2022-12-24T21:28:04.774Z,99.99
2022-12-24T21:33:06.997Z,99.75
2022-12-24T21:38:09.249Z,99.37
2022-12-24T21:43:11.447Z,99.63
2022-12-24T21:48:32.200Z,100.00
2022-12-24T21:53:52.988Z,100.00
2022-12-24T21:58:55.202Z,100.00
2022-12-24T22:03:57.438Z,100.00
2022-12-24T22:09:20.437Z,100.00
2022-12-24T22:14:22.678Z,100.00
2022-12-24T22:19:25.201Z,100.00
2022-12-24T22:24:27.461Z,100.00
2022-12-24T22:29:29.791Z,100.00
2022-12-24T22:34:32.840Z,100.00
2022-12-24T22:39:35.112Z,100.00
2022-12-24T22:44:37.369Z,100.00
2022-12-24T22:49:39.585Z,100.00
2022-12-24T22:54:41.945Z,100.00
2022-12-24T22:59:44.500Z,100.00
2022-12-24T23:04:46.919Z,100.00
2022-12-24T23:09:49.237Z,100.00
2022-12-24T23:14:57.338Z,100.00
2022-12-24T23:20:02.081Z,100.00
2022-12-24T23:25:04.602Z,100.00
2022-12-24T23:30:07.626Z,100.00
2022-12-24T23:35:09.896Z,100.00
2022-12-24T23:40:12.327Z,100.00
2022-12-24T23:45:14.762Z,100.00
2022-12-24T23:50:17.146Z,100.00
2022-12-24T23:55:19.391Z,100.00
